Lille-Lesquin Airport

LFQQ · North, Hauts-de-France, France

METAR history LFQQ · Lille-Lesquin Airport

Below you see METARs of the last few days. Select a year to browse through older METARs, from the year 2007 onwards.

March 1, 2024

Time Code Weather Temp. Visibility Ceiling Wind METAR/SPECI
11:30
M
7 °C 10 km+ 2,500 ft 160° 160° 22 - 32 kt METAR LFQQ 011030Z AUTO 16022G32KT 9999 BKN025 OVC031 07/04 Q0999 TEMPO 3000 SHRAGS SCT010 BKN014 BKN020TCU
11:00
M
6 °C 10 km+ 2,400 ft 160° 160° 23 kt METAR LFQQ 011000Z AUTO 16023KT 9999 -RA BKN024/// BKN030/// BKN037/// //////CB 06/04 Q0999 TEMPO 19020G35KT 3000 SHRAGS SCT010 BKN014 BKN020TCU
10:30
V
7 °C 10 km+ 4,800 ft 160° 160° 20 kt METAR LFQQ 010930Z AUTO 16020KT 9999 FEW021/// BKN048/// BKN074/// //////CB 07/03 Q0999 TEMPO 19020G35KT 3000 SHRAGS SCT010 BKN014 BKN020TCU
10:00
V
7 °C 10 km+ 11,000 ft 160° 160° 19 kt METAR LFQQ 010900Z AUTO 16019KT 9999 FEW020 BKN110 BKN160 07/04 Q1000 TEMPO 16020G35KT 4000 RA BECMG BKN020 SCT050TCU OVC100
09:30
M
6 °C 10 km+ 1,500 ft 160° 160° 17 kt METAR LFQQ 010830Z AUTO 16017KT 9999 BKN015 BKN140 06/04 Q1001 TEMPO 16020G35KT 4000 RA BECMG BKN020 SCT050TCU OVC100
09:00
M
6 °C 10 km+ 1,400 ft 160° 160° 14 kt METAR LFQQ 010800Z AUTO 16014KT 9999 BKN014 06/04 Q1001 TEMPO 16020G35KT 4000 RA BECMG BKN020 SCT050TCU OVC100
08:30
M
6 °C 10 km+ 1,400 ft 160° 160° 14 kt METAR LFQQ 010730Z AUTO 16014KT 9999 OVC014 06/04 Q1002 TEMPO 16020G35KT 4000 RA BECMG BKN020 SCT050TCU OVC100
08:00
M
5 °C 10 km+ 1,300 ft 170° 170° 13 kt METAR LFQQ 010700Z AUTO 17013KT 9999 OVC013 05/03 Q1002 BECMG 16015G25KT BKN020 SCT050TCU OVC100
07:30
M
5 °C 10 km+ 1,200 ft 180° 180° 13 kt METAR LFQQ 010630Z AUTO 18013KT 9999 BKN012 05/03 Q1002 BECMG 17015G25KT NSC
07:00
M
5 °C 10 km+ 1,300 ft 170° 170° 10 kt METAR LFQQ 010600Z AUTO 17010KT 9999 BKN013 05/03 Q1002 BECMG 17015G25KT NSC
06:30
V
5 °C 10 km+ 4,000 ft 180° 180° 12 kt METAR LFQQ 010530Z AUTO 18012KT 9999 FEW010 BKN040 05/03 Q1003 BECMG 17015G25KT
06:00
V
5 °C 10 km+ - 180° 180° 8 kt METAR LFQQ 010500Z AUTO 18008KT 9999 FEW011 SCT041 05/04 Q1003 NOSIG
05:30
V
5 °C 10 km+ - 200° 200° 10 kt METAR LFQQ 010430Z AUTO 20010KT CAVOK 05/04 Q1003 NOSIG
05:00
V
4 °C 10 km+ - 190° 190° 6 kt METAR LFQQ 010400Z AUTO 19006KT CAVOK 04/03 Q1003 NOSIG
04:30
V
4 °C 10 km+ - 190° 190° 6 kt METAR LFQQ 010330Z AUTO 19006KT 9999 FEW021 04/03 Q1003 NOSIG
04:00
V
5 °C 10 km+ - 220° 220° 8 kt METAR LFQQ 010300Z AUTO 22008KT 9999 FEW011 SCT100 05/04 Q1003 NOSIG
03:30
V
6 °C 10 km+ 9,600 ft 220° 220° 8 kt METAR LFQQ 010230Z AUTO 22008KT 9999 FEW011 BKN096 06/05 Q1003 NOSIG
03:00
M
6 °C 10 km+ 1,100 ft 240° 240° 6 kt METAR LFQQ 010200Z AUTO 24006KT 9999 OVC011 06/05 Q1003 TEMPO 4000 RADZ BECMG 17011KT BKN020
02:30
I
6 °C 10 km+ 900 ft 260° 260° 8 kt METAR LFQQ 010130Z AUTO 26008KT 9999 BKN009 BKN018 BKN032 06/05 Q1003 TEMPO 4000 RADZ BECMG 17011KT BKN020
02:00
I
6 °C 10 km+ 900 ft 280° 280° 9 kt METAR LFQQ 010100Z AUTO 28009KT 9999 BKN009 BKN016 BKN072 06/05 Q1003 TEMPO 26015G30KT 4000 RADZ
01:30
I
6 °C 10 km+ 800 ft 280° 280° 14 kt METAR LFQQ 010030Z AUTO 28014KT 9999 -RA BKN008 BKN015 BKN023 06/05 Q1002 TEMPO 26015G30KT 4000 RADZ
01:00
I
6 °C 7 km 900 ft 290° 290° 17 - 27 kt METAR LFQQ 010000Z AUTO 29017G27KT 7000 -RA BKN009/// BKN014/// BKN022/// //////TCU 06/05 Q1002 TEMPO 4000 RADZ BKN012
00:30
I
7 °C 8 km 900 ft 280° 280° 20 kt METAR LFQQ 292330Z AUTO 28020KT 8000 -RA BKN009 OVC018 07/06 Q1001 TEMPO 4000 RADZ BKN012
00:00
M
10 °C 10 km+ 1,200 ft 170° 170° 11 kt METAR LFQQ 292300Z AUTO 17011KT 9999 BKN012/// OVC017/// //////TCU 10/09 Q1000 TEMPO 28018G28KT 4000 RADZ BKN011

February 29, 2024

Time Code Weather Temp. Visibility Ceiling Wind METAR/SPECI
23:30
M
10 °C 10 km+ 1,100 ft 170° 170° 11 kt METAR LFQQ 292230Z AUTO 17011KT 9999 BKN011/// BKN021/// OVC082/// //////TCU 10/09 Q1000 TEMPO 28018G28KT 4000 RADZ BKN011
23:00
M
10 °C 10 km+ 1,100 ft 170° 170° 11 kt METAR LFQQ 292200Z AUTO 17011KT 9999 BKN011 OVC017 10/09 Q1001 TEMPO 28018G28KT 4000 RADZ OVC007
22:30
I
10 °C 10 km+ 900 ft 160° 160° 11 kt METAR LFQQ 292130Z AUTO 16011KT 9999 OVC009 10/09 Q1001 TEMPO 28018G28KT 4000 RADZ BKN011
22:00
M
10 °C 10 km+ 1,000 ft 160° 160° 13 kt METAR LFQQ 292100Z AUTO 16013KT 9999 BKN010 OVC014 10/09 Q1001 BECMG 26010KT BKN020
21:30
I
10 °C 10 km+ 800 ft 170° 170° 11 kt METAR LFQQ 292030Z AUTO 17011KT 9999 BKN008 OVC015 10/09 Q1001 BECMG 26010KT BKN020
21:00
I
10 °C 10 km+ 700 ft 160° 160° 13 kt METAR LFQQ 292000Z AUTO 16013KT 9999 BKN007 OVC019 10/09 Q1002 BECMG 26010KT BKN020
20:30
I
10 °C 10 km+ 700 ft 160° 160° 13 kt METAR LFQQ 291930Z AUTO 16013KT 9999 OVC007 10/09 Q1002 BECMG 26010KT BKN020
20:00
I
9 °C 10 km+ 600 ft 160° 160° 12 kt METAR LFQQ 291900Z AUTO 16012KT 9999 OVC006 09/09 Q1002 TEMPO 4000 RADZ BECMG 26010KT BKN020
19:30
I
9 °C 10 km+ 600 ft 160° 160° 13 kt METAR LFQQ 291830Z AUTO 16013KT 9999 OVC006 09/09 Q1002 TEMPO 4000 RADZ BECMG 26010KT BKN020
19:00
I
9 °C 10 km+ 700 ft 160° 160° 13 kt METAR LFQQ 291800Z AUTO 16013KT 9999 OVC007 09/09 Q1003 TEMPO 4000 RADZ
18:30
I
9 °C 5 km 800 ft 160° 160° 12 kt METAR LFQQ 291730Z AUTO 16012KT 5000 -RADZ BR OVC008 09/09 Q1003 TEMPO 2000 RADZ OVC004
18:00
I
10 °C 10 km+ 800 ft 160° 160° 13 kt METAR LFQQ 291700Z AUTO 16013KT 9999 OVC008 10/09 Q1003 TEMPO 2000 RADZ OVC004
17:30
I
10 °C 10 km+ 800 ft 160° 160° 13 kt METAR LFQQ 291630Z AUTO 16013KT 9999 OVC008 10/09 Q1004 TEMPO 2000 RADZ OVC004
17:00
I
10 °C 10 km+ 700 ft 160° 160° 12 kt METAR LFQQ 291600Z AUTO 16012KT 9999 OVC007 10/09 Q1004 TEMPO 2000 RADZ OVC004
16:30
I
10 °C 10 km+ 700 ft 170° 170° 12 kt METAR LFQQ 291530Z AUTO 17012KT 9999 OVC007 10/09 Q1004 TEMPO 2000 RADZ OVC004
16:00
I
10 °C 10 km+ 700 ft 170° 170° 13 kt METAR LFQQ 291500Z AUTO 17013KT 9999 OVC007 10/09 Q1005 TEMPO 2000 RADZ OVC004
15:30
I
9 °C 10 km+ 600 ft 160° 160° 12 kt METAR LFQQ 291430Z AUTO 16012KT 9999 OVC006 09/09 Q1005 TEMPO 2000 RADZ OVC004
15:00
I
9 °C 10 km+ 600 ft 160° 160° 10 kt METAR LFQQ 291400Z AUTO 16010KT 9999 -RA OVC006 09/09 Q1006 TEMPO 2000 RADZ OVC004
14:30
I
9 °C 10 km+ 700 ft 160° 160° 12 kt METAR LFQQ 291330Z AUTO 16012KT 9999 OVC007 09/08 Q1006 TEMPO 2000 RADZ OVC004
14:00
I
9 °C 10 km+ 700 ft 160° 160° 13 kt METAR LFQQ 291300Z AUTO 16013KT 9999 OVC007 09/08 Q1007 TEMPO 2000 RADZ OVC004
13:30
I
9 °C 10 km+ 600 ft 160° 160° 13 kt METAR LFQQ 291230Z AUTO 16013KT 9999 -RA OVC006 09/08 Q1007 TEMPO 2000 RADZ OVC004
13:00
I
9 °C 10 km+ 500 ft 160° 160° 12 kt METAR LFQQ 291200Z AUTO 16012KT 9999 -DZ OVC005/// ///TCU 09/08 Q1008 TEMPO 2000 RADZ OVC004
12:30
I
9 °C 3.8 km 500 ft 160° 160° 13 kt METAR LFQQ 291130Z AUTO 16013KT 9999 3800 -DZ OVC005 09/08 Q1008 TEMPO 2000 RADZ
12:00
I
9 °C 10 km+ 500 ft 160° 160° 12 kt METAR LFQQ 291100Z AUTO 16012KT 9999 OVC005 09/08 Q1008 TEMPO 2000 RADZ
11:30
L
9 °C 7 km 400 ft 160° 160° 11 kt METAR LFQQ 291030Z AUTO 16011KT 7000 OVC004 09/08 Q1009 TEMPO 2000 RADZ
11:00
L
9 °C 4.5 km 400 ft 160° 160° 10 kt METAR LFQQ 291000Z AUTO 16010KT 4500 BR OVC004 09/08 Q1009 TEMPO 2000 RADZ
10:30
L
9 °C 6 km 400 ft 160° 160° 10 kt METAR LFQQ 290930Z AUTO 16010KT 6000 OVC004/// //////TCU 09/08 Q1009 TEMPO 2000 RADZ BKN005
10:00
L
9 °C 7 km 400 ft 170° 170° 12 kt METAR LFQQ 290900Z AUTO 17012KT 7000 OVC004 09/08 Q1010 TEMPO 2000 RADZ BKN005
09:30
L
8 °C 7 km 400 ft 170° 170° 11 kt METAR LFQQ 290830Z AUTO 17011KT 7000 OVC004 08/08 Q1010 TEMPO 2000 RADZ BKN005
09:00
L
8 °C 5 km 400 ft 170° 170° 11 kt METAR LFQQ 290800Z AUTO 17011KT 5000 -RADZ BR OVC004 08/08 Q1010 TEMPO 2000 RADZ BKN005
08:30
I
8 °C 5 km 500 ft 160° 160° 10 kt METAR LFQQ 290730Z AUTO 16010KT 5000 -RA BR OVC005 08/08 Q1010 TEMPO 2000 RADZ
08:00
I
8 °C 9 km 500 ft 170° 170° 10 kt METAR LFQQ 290700Z AUTO 17010KT 9000 BKN005/// OVC009/// ///TCU 08/08 Q1010 TEMPO 2000 RADZ BKN005
07:30
I
8 °C 6 km 500 ft 160° 160° 11 kt METAR LFQQ 290630Z AUTO 16011KT 6000 DZ BKN005 OVC015 08/08 Q1011 TEMPO 2000 RADZ
07:00
I
8 °C 7 km 500 ft 160° 160° 11 kt METAR LFQQ 290600Z AUTO 16011KT 7000 -RA OVC005 08/08 Q1011 TEMPO 2000 RADZ
06:30
I
8 °C 5 km 500 ft 170° 170° 10 kt METAR LFQQ 290530Z AUTO 17010KT 5000 -RA BR OVC005 08/08 Q1011 TEMPO 2000 RADZ
06:00
I
8 °C 4.1 km 500 ft 170° 170° 10 kt METAR LFQQ 290500Z AUTO 17010KT 4100 -RA BR OVC005 08/08 Q1012 TEMPO 2000 RADZ
05:30
I
8 °C 6 km 900 ft 180° 180° 10 kt METAR LFQQ 290430Z AUTO 18010KT 6000 OVC009 08/07 Q1012 TEMPO 2000 RADZ BKN004
05:00
M
8 °C 10 km+ 1,000 ft 170° 170° 10 kt METAR LFQQ 290400Z AUTO 17010KT 9999 -RA OVC010 08/07 Q1012 TEMPO 2000 RADZ BKN004
04:30
M
8 °C 10 km+ 1,000 ft 170° 170° 12 kt METAR LFQQ 290330Z AUTO 17012KT 9999 OVC010 08/07 Q1012 TEMPO 2000 RADZ BKN004
04:00
M
8 °C 10 km+ 1,000 ft 180° 180° 11 kt METAR LFQQ 290300Z AUTO 18011KT 9999 OVC010 08/07 Q1013 TEMPO 2000 RADZ BKN004
03:30
M
8 °C 10 km+ 1,100 ft 170° 170° 11 kt METAR LFQQ 290230Z AUTO 17011KT 9999 BKN011 OVC035 08/07 Q1013 TEMPO 2000 RADZ BKN004
03:00
M
8 °C 10 km+ 1,200 ft 170° 170° 10 kt METAR LFQQ 290200Z AUTO 17010KT 9999 BKN012 OVC035 08/07 Q1014 TEMPO 2000 RADZ BKN004
02:30
M
8 °C 10 km+ 1,200 ft 180° 180° 11 kt METAR LFQQ 290130Z AUTO 18011KT 9999 BKN012 OVC038 08/07 Q1014 TEMPO 2000 RADZ BKN004
02:00
M
8 °C 10 km+ 1,200 ft 180° 180° 11 kt METAR LFQQ 290100Z AUTO 18011KT 9999 -DZ BKN012 BKN024 OVC042 08/07 Q1015 TEMPO 2000 RADZ BKN004
01:30
M
8 °C 10 km+ 1,300 ft 180° 180° 11 kt METAR LFQQ 290030Z AUTO 18011KT 9999 -DZ BKN013 BKN018 BKN033 08/07 Q1015 TEMPO 2000 RADZ BKN004
01:00
V
8 °C 10 km+ 3,200 ft 180° 180° 10 kt METAR LFQQ 290000Z AUTO 18010KT 9999 FEW014 SCT026 BKN032 08/07 Q1015 TEMPO 2000 RADZ BKN004
00:30
V
8 °C 8 km 4,900 ft 180° 180° 10 kt METAR LFQQ 282330Z AUTO 18010KT 8000 -RADZ SCT016 SCT039 BKN049 08/07 Q1016 TEMPO 2000 RADZ BKN004
00:00
V
8 °C 10 km+ - 190° 190° 10 kt METAR LFQQ 282300Z AUTO 19010KT CAVOK 08/06 Q1016 TEMPO 2000 RADZ BKN004

February 28, 2024

Time Code Weather Temp. Visibility Ceiling Wind METAR/SPECI
23:30
V
8 °C 10 km+ - 180° 180° 10 kt METAR LFQQ 282230Z AUTO 18010KT CAVOK 08/06 Q1016 TEMPO 2000 RADZ BKN004
23:00
V
8 °C 10 km+ 5,600 ft 180° 180° 9 kt METAR LFQQ 282200Z AUTO 18009KT 9999 FEW029 BKN056 OVC066 08/06 Q1017 TEMPO 2000 RADZ BKN004
22:30
V
8 °C 10 km+ - 170° 170° 9 kt METAR LFQQ 282130Z AUTO 17009KT CAVOK 08/06 Q1017 TEMPO 2000 RADZ BKN004
22:00
V
8 °C 10 km+ - 170° 170° 9 kt METAR LFQQ 282100Z AUTO 17009KT CAVOK 08/06 Q1017 BECMG OVC013
21:30
V
8 °C 10 km+ - 170° 170° 9 kt METAR LFQQ 282030Z AUTO 17009KT CAVOK 08/06 Q1018 BECMG OVC013
21:00
V
8 °C 10 km+ - 180° 180° 9 kt METAR LFQQ 282000Z AUTO 18009KT CAVOK 08/06 Q1018 BECMG OVC013
20:30
V
8 °C 10 km+ - 180° 180° 10 kt METAR LFQQ 281930Z AUTO 18010KT CAVOK 08/06 Q1018 BECMG OVC013
20:00
V
8 °C 10 km+ - 180° 180° 11 kt METAR LFQQ 281900Z AUTO 18011KT CAVOK 08/06 Q1019 BECMG OVC013
19:30
V
8 °C 10 km+ 24,000 ft 180° 180° 11 kt METAR LFQQ 281830Z AUTO 18011KT 9999 SCT036 OVC240 08/06 Q1019 BECMG OVC013
19:00
V
8 °C 10 km+ 3,500 ft 180° 180° 12 kt METAR LFQQ 281800Z AUTO 18012KT 9999 OVC035 08/06 Q1019 NOSIG
18:30
V
8 °C 10 km+ 3,500 ft 190° 190° 11 kt METAR LFQQ 281730Z AUTO 19011KT 9999 BKN035 OVC130 08/06 Q1019 BECMG BKN014
18:00
M
9 °C 10 km+ 2,800 ft 180° 180° 10 kt METAR LFQQ 281700Z AUTO 18010KT 9999 FEW016 BKN028 OVC130 09/06 Q1020 BECMG BKN014
17:30
M
9 °C 10 km+ 1,500 ft 180° 180° 10 kt METAR LFQQ 281630Z AUTO 18010KT 9999 BKN015 BKN030 OVC130 09/06 Q1020 BECMG BKN014
17:00
M
9 °C 10 km+ 1,400 ft 170° 170° 11 kt METAR LFQQ 281600Z AUTO 17011KT 9999 BKN014 BKN020 OVC027 09/06 Q1020 BECMG BKN030
16:30
M
9 °C 10 km+ 1,400 ft 180° 180° 12 kt METAR LFQQ 281530Z AUTO 18012KT 9999 OVC014 09/06 Q1020 BECMG BKN030
16:00
M
9 °C 10 km+ 1,500 ft 180° 180° 12 kt METAR LFQQ 281500Z AUTO 18012KT 9999 OVC015 09/06 Q1020 NOSIG
15:30
M
9 °C 10 km+ 1,500 ft 180° 180° 12 kt METAR LFQQ 281430Z AUTO 18012KT 9999 OVC015 09/06 Q1020 NOSIG
15:00
M
9 °C 10 km+ 1,500 ft 190° 190° 13 kt METAR LFQQ 281400Z AUTO 19013KT 9999 OVC015 09/06 Q1020 NOSIG
14:30
M
10 °C 10 km+ 1,800 ft 190° 190° 12 kt METAR LFQQ 281330Z AUTO 19012KT 9999 BKN018 OVC056 10/06 Q1021 NOSIG
14:00
M
10 °C 10 km+ 1,600 ft 180° 180° 11 kt METAR LFQQ 281300Z AUTO 18011KT 9999 BKN016 BKN045 OVC056 10/07 Q1021 NOSIG
13:30
M
10 °C 10 km+ 1,500 ft 190° 190° 12 kt METAR LFQQ 281230Z AUTO 19012KT 9999 BKN015 OVC056 10/06 Q1021 NOSIG
13:00
M
10 °C 10 km+ 1,500 ft 190° 190° 12 kt METAR LFQQ 281200Z AUTO 19012KT 9999 BKN015 OVC054 10/07 Q1021 NOSIG
12:30
M
9 °C 10 km+ 2,200 ft 190° 190° 11 kt METAR LFQQ 281130Z AUTO 19011KT 9999 SCT014 BKN022 BKN056 09/06 Q1022 NOSIG
12:00
V
9 °C 10 km+ 5,600 ft 180° 180° 10 kt METAR LFQQ 281100Z AUTO 18010KT 9999 FEW012 BKN056 BKN180 09/06 Q1022 TEMPO BKN007 BKN030
11:30
I
8 °C 10 km+ 900 ft 180° 180° 10 kt METAR LFQQ 281030Z AUTO 18010KT 9999 BKN009 BKN013 BKN024 08/07 Q1022 BECMG SCT015 BKN030
11:00
M
8 °C 10 km+ 2,000 ft 180° 180° 7 kt METAR LFQQ 281000Z AUTO 18007KT 9999 SCT007 BKN020 OVC030 08/07 Q1022 BECMG BKN007 BKN030
10:30
I
7 °C 10 km+ 600 ft 170° 170° 5 kt METAR LFQQ 280930Z AUTO 17005KT 9999 BKN006 BKN012 OVC026 07/06 Q1022 NOSIG
10:00
I
6 °C 10 km+ 700 ft 150° 150° 5 kt METAR LFQQ 280900Z AUTO 15005KT 9999 BKN007 BKN026 OVC031 06/06 Q1022 TEMPO 3000 DZ BR
09:30
I
6 °C 10 km+ 600 ft 160° 160° 5 kt METAR LFQQ 280830Z AUTO 16005KT 9999 OVC006 06/05 Q1022 TEMPO 3000 DZ BR
09:00
I
5 °C 10 km+ 500 ft 170° 170° 4 kt METAR LFQQ 280800Z AUTO 17004KT 9999 OVC005 05/05 Q1021 TEMPO 3000 DZ BR
08:30
I
5 °C 9 km 500 ft 140° 140° 4 kt METAR LFQQ 280730Z AUTO 14004KT 9000 BKN005 OVC012 05/05 Q1021 TEMPO 3000 DZ BR BKN012
08:00
I
4 °C 9 km 800 ft 150° 150° 2 kt METAR LFQQ 280700Z AUTO 15002KT 9000 BKN008 BKN012 BKN026 04/04 Q1021 TEMPO 0500 FG VV///
07:30
M
4 °C 5 km 1,200 ft 150° 150° 4 kt METAR LFQQ 280630Z AUTO 15004KT 5000 BR BKN012 BKN018 OVC026 04/04 Q1021 TEMPO 0500 FG VV///
07:00
M
4 °C 5 km 1,900 ft 160° 160° 2 kt METAR LFQQ 280600Z AUTO 16002KT 5000 BR SCT012 BKN019 OVC024 04/03 Q1021 TEMPO 0500 FG VV///